createdAt,value
2023-05-03T00:01:12.954Z,44.53
2023-05-03T00:03:39.857Z,44.56
2023-05-03T00:06:11.449Z,44.86
2023-05-03T00:08:40.068Z,44.96
2023-05-03T00:11:07.261Z,44.91
2023-05-03T00:13:34.183Z,45.09
2023-05-03T00:16:01.285Z,44.63
2023-05-03T00:18:29.129Z,44.70
2023-05-03T00:20:57.060Z,45.04
2023-05-03T00:23:24.073Z,45.44
2023-05-03T00:25:54.118Z,45.16
2023-05-03T00:28:21.610Z,45.48
2023-05-03T00:30:48.800Z,45.62
2023-05-03T00:33:16.654Z,45.59
2023-05-03T00:35:43.714Z,45.33
2023-05-03T00:38:10.765Z,45.58
2023-05-03T00:40:37.978Z,45.10
2023-05-03T00:43:06.428Z,45.97
2023-05-03T00:45:34.369Z,45.35
2023-05-03T00:48:01.929Z,45.85
2023-05-03T00:50:29.243Z,45.32
2023-05-03T00:52:56.383Z,45.24
2023-05-03T00:55:24.075Z,45.01
2023-05-03T00:57:51.170Z,45.53
2023-05-03T01:00:20.444Z,44.88
2023-05-03T01:02:47.481Z,45.47
2023-05-03T01:05:14.794Z,46.18
2023-05-03T01:07:50.984Z,46.18
2023-05-03T01:10:23.333Z,45.83
2023-05-03T01:12:57.141Z,45.94
2023-05-03T01:15:37.344Z,45.80
2023-05-03T01:18:09.896Z,45.92
2023-05-03T01:20:38.170Z,46.40
2023-05-03T01:23:10.805Z,45.48
2023-05-03T01:25:39.067Z,46.47
2023-05-03T01:28:05.969Z,45.73
2023-05-03T01:30:33.421Z,46.38
2023-05-03T01:33:09.298Z,46.39
2023-05-03T01:35:41.169Z,46.29
2023-05-03T01:38:08.622Z,45.55
2023-05-03T01:40:41.507Z,45.85
2023-05-03T01:43:08.594Z,45.97
2023-05-03T01:45:35.632Z,46.02
2023-05-03T01:48:02.685Z,46.47
2023-05-03T01:50:29.604Z,46.63
2023-05-03T01:52:56.494Z,45.97
2023-05-03T01:55:23.390Z,46.34
2023-05-03T01:57:51.781Z,45.69
2023-05-03T02:00:19.118Z,46.68
2023-05-03T02:02:46.510Z,46.85
2023-05-03T02:05:13.663Z,46.84
2023-05-03T02:07:40.992Z,46.82
2023-05-03T02:10:08.821Z,47.09
2023-05-03T02:12:35.788Z,47.10
2023-05-03T02:15:05.014Z,46.93
2023-05-03T02:17:32.032Z,47.35
2023-05-03T02:19:59.027Z,47.86
2023-05-03T02:22:25.896Z,47.91
2023-05-03T02:24:54.878Z,47.26
2023-05-03T02:27:22.080Z,47.13
2023-05-03T02:29:49.014Z,47.39
2023-05-03T02:32:17.799Z,47.02
2023-05-03T02:34:47.890Z,46.89
2023-05-03T02:37:18.365Z,47.44
2023-05-03T02:39:46.039Z,47.55
2023-05-03T02:42:15.201Z,47.60
2023-05-03T02:44:43.111Z,47.19
2023-05-03T02:47:11.120Z,47.08
2023-05-03T02:49:42.025Z,47.26
2023-05-03T02:52:09.751Z,47.30
2023-05-03T02:54:36.654Z,47.44
2023-05-03T02:57:09.169Z,48.11
2023-05-03T02:59:36.216Z,47.21
2023-05-03T03:02:03.224Z,47.70
2023-05-03T03:04:32.508Z,47.28
2023-05-03T03:07:01.017Z,47.71
2023-05-03T03:09:28.070Z,48.21
2023-05-03T03:11:55.625Z,47.53
2023-05-03T03:14:23.081Z,48.01
2023-05-03T03:16:51.630Z,47.65
2023-05-03T03:19:18.329Z,47.12
2023-05-03T03:21:45.198Z,47.25
2023-05-03T03:24:13.567Z,47.95
2023-05-03T03:26:41.109Z,48.01
2023-05-03T03:29:09.917Z,47.07
2023-05-03T03:31:40.555Z,47.69
2023-05-03T03:34:07.726Z,47.14
2023-05-03T03:36:34.724Z,46.60
2023-05-03T03:39:01.639Z,46.97
2023-05-03T03:41:30.840Z,46.35
2023-05-03T03:43:58.278Z,46.91
2023-05-03T03:46:25.409Z,47.03
2023-05-03T03:48:55.218Z,47.10
2023-05-03T03:51:24.174Z,47.34
2023-05-03T03:53:51.554Z,46.89
2023-05-03T03:56:21.861Z,46.95
2023-05-03T03:58:52.388Z,46.61
2023-05-03T04:01:19.382Z,47.12
2023-05-03T04:03:47.637Z,47.15
2023-05-03T04:06:14.790Z,47.20
2023-05-03T04:08:42.006Z,47.76
2023-05-03T04:11:12.699Z,47.46
2023-05-03T04:13:45.058Z,48.08
2023-05-03T04:16:13.579Z,47.69
2023-05-03T04:18:41.719Z,47.79
2023-05-03T04:21:09.343Z,48.01
2023-05-03T04:23:36.337Z,47.80
2023-05-03T04:26:06.553Z,47.69
2023-05-03T04:28:35.312Z,47.07
2023-05-03T04:31:02.390Z,47.36
2023-05-03T04:33:32.842Z,48.02
2023-05-03T04:36:04.645Z,47.54
2023-05-03T04:38:33.572Z,47.75
2023-05-03T04:41:03.181Z,47.79
2023-05-03T04:43:30.704Z,47.39
2023-05-03T04:45:57.689Z,47.76
2023-05-03T04:48:26.994Z,47.73
2023-05-03T04:50:55.379Z,47.09
2023-05-03T04:53:23.850Z,47.50
2023-05-03T04:56:02.619Z,48.53
2023-05-03T04:58:32.650Z,49.64
2023-05-03T05:00:59.665Z,50.96
2023-05-03T05:03:31.675Z,53.23
2023-05-03T05:06:03.202Z,53.96
2023-05-03T05:08:32.113Z,54.30
2023-05-03T05:10:59.101Z,54.41
2023-05-03T05:13:30.511Z,55.01
2023-05-03T05:15:57.783Z,54.18
2023-05-03T05:18:24.846Z,53.90
2023-05-03T05:20:53.187Z,54.83
2023-05-03T05:23:22.267Z,54.98
2023-05-03T05:25:49.192Z,55.11
2023-05-03T05:28:17.213Z,54.07
2023-05-03T05:30:45.920Z,53.71
2023-05-03T05:33:12.918Z,54.01
2023-05-03T05:35:39.879Z,51.99
2023-05-03T05:38:07.590Z,53.63
2023-05-03T05:40:36.588Z,52.84
2023-05-03T05:43:03.656Z,53.96
2023-05-03T05:45:34.599Z,53.74
2023-05-03T05:48:03.019Z,53.71
2023-05-03T05:50:31.569Z,53.60
2023-05-03T05:53:02.853Z,55.13
2023-05-03T05:55:36.345Z,54.84
2023-05-03T05:58:03.386Z,52.89
2023-05-03T06:00:37.877Z,53.96
2023-05-03T06:03:05.084Z,53.38
2023-05-03T06:05:32.191Z,52.19
2023-05-03T06:07:59.842Z,53.62
2023-05-03T06:10:26.822Z,52.14
2023-05-03T06:12:57.501Z,52.13
2023-05-03T06:15:26.349Z,52.42
2023-05-03T06:17:53.665Z,52.06
2023-05-03T06:20:20.908Z,52.40
2023-05-03T06:22:49.382Z,54.33
2023-05-03T06:25:17.977Z,54.20
2023-05-03T06:27:48.455Z,54.00
2023-05-03T06:30:18.315Z,54.59
2023-05-03T06:32:47.853Z,54.05
2023-05-03T06:35:15.771Z,53.66
2023-05-03T06:37:43.758Z,54.17
2023-05-03T06:40:11.408Z,53.67
2023-05-03T06:42:38.315Z,53.28
2023-05-03T06:45:14.741Z,54.10
2023-05-03T06:47:43.540Z,54.96
2023-05-03T06:50:11.073Z,54.24
2023-05-03T06:52:38.228Z,54.64
2023-05-03T06:55:06.131Z,53.56
2023-05-03T06:57:33.019Z,54.28
2023-05-03T06:59:59.974Z,53.88
2023-05-03T07:02:27.531Z,54.14
2023-05-03T07:04:55.913Z,54.16
2023-05-03T07:07:22.964Z,52.48
2023-05-03T07:09:50.070Z,53.34
2023-05-03T07:12:17.018Z,53.48
2023-05-03T07:14:43.942Z,53.60
2023-05-03T07:17:10.864Z,52.96
2023-05-03T07:19:39.709Z,52.58
2023-05-03T07:22:07.943Z,53.05
2023-05-03T07:24:34.927Z,52.84
2023-05-03T07:27:02.238Z,52.88
2023-05-03T07:29:29.169Z,52.90
2023-05-03T07:31:56.168Z,52.28
2023-05-03T07:34:23.087Z,53.64
2023-05-03T07:36:50.038Z,53.31
2023-05-03T07:39:18.553Z,53.58
2023-05-03T07:41:46.021Z,53.03
2023-05-03T07:44:12.931Z,51.99
2023-05-03T07:46:39.867Z,52.45
2023-05-03T07:49:06.782Z,52.26
2023-05-03T07:51:35.791Z,51.44
2023-05-03T07:54:02.836Z,51.79
2023-05-03T07:56:31.476Z,52.70
2023-05-03T07:59:08.224Z,52.87
2023-05-03T08:01:36.820Z,51.29
2023-05-03T08:04:04.743Z,52.25
2023-05-03T08:06:32.720Z,52.31
2023-05-03T08:08:59.725Z,51.40
2023-05-03T08:11:27.282Z,51.52
2023-05-03T08:13:55.713Z,51.25
2023-05-03T08:16:22.504Z,52.49
2023-05-03T08:18:49.502Z,52.16
2023-05-03T08:21:17.653Z,50.28
2023-05-03T08:23:45.185Z,50.56
2023-05-03T08:26:14.172Z,49.58
2023-05-03T08:28:41.265Z,49.63
2023-05-03T08:31:09.702Z,49.70
2023-05-03T08:33:37.048Z,47.42
2023-05-03T08:36:04.223Z,47.36
2023-05-03T08:38:31.437Z,47.09
2023-05-03T08:40:59.861Z,47.25
2023-05-03T08:43:28.126Z,45.60
2023-05-03T08:45:55.271Z,45.44
2023-05-03T08:48:23.744Z,44.53
2023-05-03T08:50:52.146Z,43.83
2023-05-03T08:53:19.111Z,43.66
2023-05-03T08:55:46.024Z,43.00
2023-05-03T08:58:13.405Z,43.83
2023-05-03T09:00:44.843Z,42.91
2023-05-03T09:03:12.600Z,43.22
2023-05-03T09:05:44.163Z,43.00
2023-05-03T09:08:12.884Z,43.02
2023-05-03T09:10:40.919Z,43.09
2023-05-03T09:13:10.415Z,42.84
2023-05-03T09:15:37.499Z,42.90
2023-05-03T09:18:15.834Z,42.97
2023-05-03T09:20:51.989Z,42.57
2023-05-03T09:23:20.941Z,41.86
2023-05-03T09:25:49.036Z,42.19
2023-05-03T09:28:15.979Z,40.95
2023-05-03T09:30:43.045Z,41.01
2023-05-03T09:33:10.615Z,41.05
2023-05-03T09:35:37.842Z,39.17
2023-05-03T09:38:06.336Z,40.23
2023-05-03T09:40:33.339Z,39.15
2023-05-03T09:43:10.434Z,38.41
2023-05-03T09:45:37.850Z,40.47
2023-05-03T09:48:07.332Z,39.17
2023-05-03T09:50:36.387Z,37.31
2023-05-03T09:53:04.129Z,37.01
2023-05-03T09:55:36.347Z,35.78
2023-05-03T09:58:06.613Z,34.89
2023-05-03T10:00:36.961Z,35.44
2023-05-03T10:03:08.065Z,33.00
2023-05-03T10:05:40.989Z,34.53
2023-05-03T10:08:08.144Z,36.48
2023-05-03T10:10:37.021Z,36.67
2023-05-03T10:13:03.992Z,36.93
2023-05-03T10:15:31.420Z,34.72
2023-05-03T10:17:59.985Z,34.37
2023-05-03T10:20:28.690Z,35.13
2023-05-03T10:23:11.876Z,34.48
2023-05-03T10:25:41.348Z,34.45
2023-05-03T10:28:09.816Z,34.61
2023-05-03T10:30:37.940Z,36.90
2023-05-03T10:33:30.217Z,35.95
2023-05-03T10:35:57.828Z,37.03
2023-05-03T10:38:26.470Z,37.59
2023-05-03T10:40:55.750Z,37.39
2023-05-03T10:43:41.813Z,37.73
2023-05-03T10:46:12.304Z,37.11
2023-05-03T10:48:39.253Z,38.09
2023-05-03T10:51:37.205Z,39.96
2023-05-03T10:54:04.473Z,39.70
2023-05-03T10:56:32.814Z,40.58
2023-05-03T10:59:00.030Z,40.74
2023-05-03T11:01:27.465Z,40.85
2023-05-03T11:04:00.962Z,41.24
2023-05-03T11:06:30.289Z,41.71
2023-05-03T11:08:57.305Z,40.59
2023-05-03T11:11:24.204Z,40.35
2023-05-03T11:13:52.770Z,41.20
2023-05-03T11:16:20.722Z,40.38
2023-05-03T11:18:48.849Z,41.55
2023-05-03T11:21:16.617Z,41.14
2023-05-03T11:23:44.253Z,41.74
2023-05-03T11:26:11.860Z,42.04
2023-05-03T11:28:39.053Z,41.18
2023-05-03T11:31:07.803Z,40.59
2023-05-03T11:33:35.277Z,40.15
2023-05-03T11:36:05.755Z,40.50
2023-05-03T11:38:33.317Z,41.88
2023-05-03T11:41:00.717Z,40.74
2023-05-03T11:43:28.887Z,39.65
2023-05-03T11:45:58.413Z,36.61
2023-05-03T11:48:27.823Z,37.91
2023-05-03T11:50:56.003Z,38.29
2023-05-03T11:53:24.052Z,37.12
2023-05-03T11:55:53.287Z,37.28
2023-05-03T11:58:22.607Z,36.98
2023-05-03T12:00:51.129Z,36.58
2023-05-03T12:03:19.194Z,35.57
2023-05-03T12:05:49.360Z,36.18
2023-05-03T12:08:20.787Z,35.93
2023-05-03T12:10:50.131Z,36.66
2023-05-03T12:13:29.733Z,37.39
2023-05-03T12:16:10.702Z,38.04
2023-05-03T12:18:47.813Z,38.33
2023-05-03T12:23:49.014Z,39.98
2023-05-03T12:26:19.056Z,40.18
2023-05-03T12:28:46.978Z,41.10
2023-05-03T12:31:17.642Z,41.75
2023-05-03T12:34:02.631Z,42.79
2023-05-03T12:36:37.007Z,43.60
2023-05-03T12:39:09.402Z,44.19
2023-05-03T12:44:10.114Z,45.64
2023-05-03T12:46:38.577Z,45.85
2023-05-03T12:49:08.285Z,46.21
2023-05-03T12:51:40.989Z,47.04
2023-05-03T12:54:11.800Z,48.56
2023-05-03T12:56:40.823Z,50.52
2023-05-03T12:59:39.238Z,51.52
2023-05-03T13:07:00.581Z,54.99
2023-05-03T13:09:38.022Z,55.34
2023-05-03T13:12:15.666Z,57.13
2023-05-03T13:14:42.970Z,57.61
2023-05-03T13:17:10.337Z,58.54
2023-05-03T13:19:37.742Z,59.69
2023-05-03T13:22:06.099Z,59.65
2023-05-03T13:24:33.027Z,60.81
2023-05-03T13:27:00.150Z,61.39
2023-05-03T13:29:27.049Z,62.07
2023-05-03T13:31:54.146Z,61.12
2023-05-03T13:34:21.589Z,61.60
2023-05-03T13:36:48.756Z,62.49
2023-05-03T13:39:17.287Z,63.74
2023-05-03T13:41:45.851Z,65.23
2023-05-03T13:44:13.899Z,66.44
2023-05-03T13:46:41.556Z,68.26
2023-05-03T13:49:08.781Z,69.12
2023-05-03T13:51:35.887Z,69.08
2023-05-03T13:54:04.162Z,70.37
2023-05-03T13:56:33.869Z,71.42
2023-05-03T13:59:02.606Z,70.96
2023-05-03T14:01:29.734Z,71.76
2023-05-03T14:03:56.929Z,72.49
2023-05-03T14:06:23.994Z,72.74
2023-05-03T14:08:54.161Z,74.44
2023-05-03T14:11:21.860Z,74.08
2023-05-03T14:13:57.082Z,75.71
2023-05-03T14:18:56.325Z,76.67
2023-05-03T14:21:23.219Z,76.67
2023-05-03T14:23:51.392Z,76.57
2023-05-03T14:26:19.343Z,76.34
2023-05-03T14:28:46.636Z,75.82
2023-05-03T14:31:15.076Z,75.83
2023-05-03T14:33:42.092Z,76.36
2023-05-03T14:36:09.422Z,75.61
2023-05-03T14:38:37.271Z,76.48
2023-05-03T14:41:04.735Z,75.79
2023-05-03T14:43:32.535Z,74.71
2023-05-03T14:45:59.446Z,75.12
2023-05-03T14:48:27.781Z,74.37
2023-05-03T14:50:55.096Z,73.96
2023-05-03T14:53:23.134Z,74.69
2023-05-03T14:55:50.105Z,74.56
2023-05-03T14:58:17.237Z,74.74
2023-05-03T15:00:44.338Z,76.07
2023-05-03T15:03:12.494Z,76.49
2023-05-03T15:05:44.815Z,76.95
2023-05-03T15:08:14.254Z,77.39
2023-05-03T15:10:41.522Z,77.08
2023-05-03T15:13:09.643Z,77.36
2023-05-03T15:15:37.227Z,77.28
2023-05-03T15:18:04.571Z,76.67
2023-05-03T15:20:31.607Z,76.53
2023-05-03T15:22:59.930Z,76.58
2023-05-03T15:25:27.127Z,77.29
2023-05-03T15:27:54.088Z,76.15
2023-05-03T15:30:21.137Z,75.32
2023-05-03T15:32:48.096Z,74.09
2023-05-03T15:35:15.255Z,75.30
2023-05-03T15:37:42.227Z,76.12
2023-05-03T15:40:12.766Z,75.01
2023-05-03T15:42:39.836Z,74.03
2023-05-03T15:45:08.771Z,74.19
2023-05-03T15:47:35.847Z,74.21
2023-05-03T15:50:03.077Z,73.27
2023-05-03T15:52:31.032Z,73.75
2023-05-03T15:54:57.958Z,72.86
2023-05-03T15:57:26.846Z,73.22
2023-05-03T15:59:54.790Z,73.65
2023-05-03T16:02:21.988Z,71.45
2023-05-03T16:04:50.341Z,72.21
2023-05-03T16:07:17.763Z,72.96
2023-05-03T16:09:44.808Z,73.17
2023-05-03T16:12:11.755Z,74.09
2023-05-03T16:14:40.123Z,72.69
2023-05-03T16:17:07.079Z,73.13
2023-05-03T16:19:34.166Z,73.96
2023-05-03T16:22:01.097Z,73.72
2023-05-03T16:24:28.521Z,73.14
2023-05-03T16:26:55.570Z,74.61
2023-05-03T16:29:22.521Z,73.40
2023-05-03T16:31:51.263Z,73.70
2023-05-03T16:34:18.140Z,74.30
2023-05-03T16:36:45.349Z,74.44
2023-05-03T16:39:13.298Z,74.86
2023-05-03T16:41:40.495Z,75.33
2023-05-03T16:44:08.627Z,75.01
2023-05-03T16:46:36.296Z,76.74
2023-05-03T16:49:05.193Z,76.38
2023-05-03T16:51:32.405Z,75.55
2023-05-03T16:54:00.612Z,74.33
2023-05-03T16:56:30.737Z,75.51
2023-05-03T16:58:59.224Z,76.03
2023-05-03T17:01:26.445Z,75.47
2023-05-03T17:03:53.585Z,75.74
2023-05-03T17:06:22.283Z,76.03
2023-05-03T17:08:49.189Z,76.52
2023-05-03T17:11:16.409Z,76.76
2023-05-03T17:13:43.326Z,77.11
2023-05-03T17:16:11.810Z,76.63
2023-05-03T17:18:39.024Z,76.60
2023-05-03T17:21:07.128Z,76.31
2023-05-03T17:23:38.249Z,75.96
2023-05-03T17:26:06.457Z,75.72
2023-05-03T17:28:33.382Z,76.27
2023-05-03T17:31:01.085Z,76.21
2023-05-03T17:33:28.037Z,75.93
2023-05-03T17:35:55.774Z,76.21
2023-05-03T17:38:23.181Z,75.86
2023-05-03T17:40:51.539Z,76.09
2023-05-03T17:43:18.515Z,77.54
2023-05-03T17:45:47.463Z,77.00
2023-05-03T17:48:14.827Z,78.03
2023-05-03T17:50:43.221Z,77.62
2023-05-03T17:53:10.320Z,77.40
2023-05-03T17:55:38.384Z,78.07
2023-05-03T17:58:06.817Z,77.53
2023-05-03T18:00:34.032Z,78.47
2023-05-03T18:03:01.414Z,78.51
2023-05-03T18:05:28.608Z,78.16
2023-05-03T18:07:55.560Z,78.74
2023-05-03T18:10:22.552Z,78.89
2023-05-03T18:12:49.555Z,79.56
2023-05-03T18:15:18.347Z,79.73
2023-05-03T18:17:45.288Z,79.76
2023-05-03T18:20:13.682Z,80.21
2023-05-03T18:22:40.661Z,79.68
2023-05-03T18:25:07.835Z,79.25
2023-05-03T18:27:37.566Z,79.98
2023-05-03T18:30:06.884Z,79.15
2023-05-03T18:32:35.559Z,80.04
2023-05-03T18:35:03.575Z,79.89
2023-05-03T18:37:30.845Z,78.98
2023-05-03T18:39:57.833Z,78.41
2023-05-03T18:42:24.805Z,78.68
2023-05-03T18:44:52.308Z,78.60
2023-05-03T18:47:22.082Z,79.26
2023-05-03T18:49:53.299Z,78.47
2023-05-03T18:52:20.342Z,77.99
2023-05-03T18:54:47.508Z,78.56
2023-05-03T18:57:14.480Z,78.86
2023-05-03T18:59:52.566Z,79.00
2023-05-03T19:02:30.646Z,78.91
2023-05-03T19:04:59.927Z,78.98
2023-05-03T19:07:27.585Z,79.35
2023-05-03T19:09:54.708Z,79.10
2023-05-03T19:12:21.847Z,79.50
2023-05-03T19:14:48.852Z,79.46
2023-05-03T19:17:15.892Z,79.21
2023-05-03T19:19:42.874Z,79.78
2023-05-03T19:22:11.152Z,79.77
2023-05-03T19:24:39.848Z,79.91
2023-05-03T19:27:06.825Z,79.38
2023-05-03T19:29:33.838Z,79.33
2023-05-03T19:32:00.853Z,79.04
2023-05-03T19:34:28.168Z,78.32
2023-05-03T19:36:55.072Z,78.60
2023-05-03T19:39:23.351Z,78.57
2023-05-03T19:41:52.985Z,77.89
2023-05-03T19:44:19.896Z,78.75
2023-05-03T19:46:46.832Z,77.91
2023-05-03T19:49:13.707Z,78.30
2023-05-03T19:51:40.664Z,79.03
2023-05-03T19:54:07.598Z,78.93
2023-05-03T19:56:35.876Z,79.07
2023-05-03T19:59:02.839Z,79.13
2023-05-03T20:01:29.809Z,79.60
2023-05-03T20:03:56.945Z,79.20
2023-05-03T20:06:23.962Z,78.45
2023-05-03T20:08:51.303Z,78.07
2023-05-03T20:11:19.515Z,77.71
2023-05-03T20:13:47.879Z,77.37
2023-05-03T20:16:15.199Z,77.15
2023-05-03T20:18:42.762Z,77.46
2023-05-03T20:21:10.058Z,78.35
2023-05-03T20:23:37.732Z,77.27
2023-05-03T20:26:04.633Z,77.90
2023-05-03T20:28:32.700Z,74.99
2023-05-03T20:31:00.973Z,75.65
2023-05-03T20:33:27.879Z,75.70
2023-05-03T20:35:54.770Z,75.73
2023-05-03T20:38:21.844Z,75.01
2023-05-03T20:40:48.739Z,75.29
2023-05-03T20:43:16.327Z,75.95
2023-05-03T20:45:43.214Z,75.26
2023-05-03T20:48:11.621Z,73.53
2023-05-03T20:50:38.650Z,74.46
2023-05-03T20:53:05.765Z,74.68
2023-05-03T20:55:32.690Z,75.80
2023-05-03T20:57:59.603Z,75.50
2023-05-03T21:00:27.196Z,75.47
2023-05-03T21:02:54.756Z,74.97
2023-05-03T21:05:23.394Z,74.86
2023-05-03T21:07:50.408Z,74.58
2023-05-03T21:10:17.302Z,74.41
2023-05-03T21:12:44.366Z,74.28
2023-05-03T21:15:11.960Z,74.72
2023-05-03T21:17:38.983Z,74.39
2023-05-03T21:20:07.923Z,75.51
2023-05-03T21:22:36.335Z,75.27
2023-05-03T21:25:04.264Z,75.54
2023-05-03T21:27:31.270Z,75.23
2023-05-03T21:29:58.261Z,74.71
2023-05-03T21:32:25.251Z,74.49
2023-05-03T21:34:53.711Z,74.61
2023-05-03T21:37:20.632Z,73.61
2023-05-03T21:40:05.844Z,73.74
2023-05-03T21:42:33.010Z,74.13
2023-05-03T21:44:59.903Z,74.63
2023-05-03T21:47:27.871Z,74.72
2023-05-03T21:49:54.932Z,74.95
2023-05-03T21:52:21.857Z,74.95
2023-05-03T21:54:50.092Z,74.87
2023-05-03T21:57:18.921Z,75.03
2023-05-03T21:59:46.699Z,75.00
2023-05-03T22:02:13.596Z,75.15
2023-05-03T22:04:40.634Z,75.61
2023-05-03T22:07:07.509Z,75.01
2023-05-03T22:09:34.484Z,74.58
2023-05-03T22:12:15.562Z,74.36
2023-05-03T22:14:49.675Z,75.29
2023-05-03T22:17:16.681Z,75.47
2023-05-03T22:19:43.812Z,75.22
2023-05-03T22:22:10.723Z,74.71
2023-05-03T22:24:37.599Z,74.99
2023-05-03T22:27:05.917Z,74.50
2023-05-03T22:29:33.100Z,74.73
2023-05-03T22:32:00.287Z,75.09
2023-05-03T22:34:27.192Z,74.68
2023-05-03T22:36:54.178Z,73.93
2023-05-03T22:39:21.108Z,74.76
2023-05-03T22:41:47.998Z,75.20
2023-05-03T22:44:16.292Z,74.46
2023-05-03T22:46:43.188Z,73.95
2023-05-03T22:49:10.090Z,74.00
2023-05-03T22:51:37.070Z,73.62
2023-05-03T22:54:04.346Z,73.03
2023-05-03T22:56:31.208Z,73.44
2023-05-03T22:58:58.163Z,75.18
2023-05-03T23:01:27.084Z,75.49
2023-05-03T23:03:54.171Z,76.01
2023-05-03T23:06:21.214Z,76.55
2023-05-03T23:08:48.149Z,76.20
2023-05-03T23:11:15.194Z,76.67
2023-05-03T23:13:42.137Z,76.98
2023-05-03T23:16:09.173Z,77.03
2023-05-03T23:18:37.540Z,77.11
2023-05-03T23:21:04.626Z,77.68
2023-05-03T23:23:31.711Z,77.45
2023-05-03T23:25:58.660Z,77.60
2023-05-03T23:28:26.059Z,77.36
2023-05-03T23:30:53.616Z,77.31
2023-05-03T23:33:21.525Z,77.61
2023-05-03T23:35:50.147Z,77.16
2023-05-03T23:38:17.149Z,77.03
2023-05-03T23:40:44.037Z,77.07
2023-05-03T23:43:11.275Z,77.29
2023-05-03T23:45:38.202Z,77.38
2023-05-03T23:48:05.806Z,77.60
2023-05-03T23:50:32.824Z,76.55
2023-05-03T23:53:03.547Z,76.98
2023-05-03T23:55:30.464Z,77.06
2023-05-03T23:57:57.426Z,76.45
